Terminal Aerodrome Forecast
Issued by NWS

Home | Current Version | Previous Version | Text Only | Print | Product List | Glossary On
Versions: 1 2 3 4 5 6 7 8 9 10 11 12
000
FTUS42 KMLB 221700
TAFLEE
TAF
KLEE 221737Z 2218/2318 VRB04KT P6SM SKC
     FM222100 29006KT P6SM VCTS SCT045CB SCT080 BKN250
      TEMPO 2221/2223 2SM TSRA BKN025CB
     FM230300 19002KT P6SM FEW020 SCT100 OVC250
     FM230600 19003KT P6SM FEW010 SCT250
     FM231400 24005KT P6SM SCT020=

USA.gov is the U.S. government's official web portal to all federal, state and local government web resources and services.